sensor_id;sensor_type;location;lat;lon;timestamp;temperature;humidity
66144;SHT31;52947;50.842;6.084;2023-06-22T00:01:22;20.39;74.44
66144;SHT31;52947;50.842;6.084;2023-06-22T00:03:52;20.35;74.48
66144;SHT31;52947;50.842;6.084;2023-06-22T00:06:20;20.35;74.35
66144;SHT31;52947;50.842;6.084;2023-06-22T00:08:48;20.28;74.54
66144;SHT31;52947;50.842;6.084;2023-06-22T00:11:16;20.38;74.64
66144;SHT31;52947;50.842;6.084;2023-06-22T00:13:44;20.34;74.59
66144;SHT31;52947;50.842;6.084;2023-06-22T00:16:14;20.28;73.91
66144;SHT31;52947;50.842;6.084;2023-06-22T00:18:41;20.28;73.64
66144;SHT31;52947;50.842;6.084;2023-06-22T00:21:15;20.21;74.27
66144;SHT31;52947;50.842;6.084;2023-06-22T00:23:43;20.28;73.74
66144;SHT31;52947;50.842;6.084;2023-06-22T00:26:10;20.29;73.96
66144;SHT31;52947;50.842;6.084;2023-06-22T00:28:39;20.28;73.60
66144;SHT31;52947;50.842;6.084;2023-06-22T00:31:07;20.36;73.41
66144;SHT31;52947;50.842;6.084;2023-06-22T00:33:35;20.45;73.08
66144;SHT31;52947;50.842;6.084;2023-06-22T00:36:04;20.52;72.93
66144;SHT31;52947;50.842;6.084;2023-06-22T00:38:35;20.53;73.10
66144;SHT31;52947;50.842;6.084;2023-06-22T00:41:07;20.57;72.78
66144;SHT31;52947;50.842;6.084;2023-06-22T00:43:35;20.51;73.00
66144;SHT31;52947;50.842;6.084;2023-06-22T00:46:03;20.48;72.58
66144;SHT31;52947;50.842;6.084;2023-06-22T00:48:32;20.39;72.48
66144;SHT31;52947;50.842;6.084;2023-06-22T00:51:00;20.49;72.12
66144;SHT31;52947;50.842;6.084;2023-06-22T00:53:28;20.31;72.28
66144;SHT31;52947;50.842;6.084;2023-06-22T00:55:57;20.31;72.72
66144;SHT31;52947;50.842;6.084;2023-06-22T00:58:27;20.38;72.62
66144;SHT31;52947;50.842;6.084;2023-06-22T01:00:55;20.35;72.58
66144;SHT31;52947;50.842;6.084;2023-06-22T01:03:26;20.42;72.53
66144;SHT31;52947;50.842;6.084;2023-06-22T01:06:08;20.53;72.27
66144;SHT31;52947;50.842;6.084;2023-06-22T01:08:42;20.49;72.22
66144;SHT31;52947;50.842;6.084;2023-06-22T01:11:18;20.49;71.87
66144;SHT31;52947;50.842;6.084;2023-06-22T01:13:54;20.46;72.14
66144;SHT31;52947;50.842;6.084;2023-06-22T01:16:28;20.49;72.45
66144;SHT31;52947;50.842;6.084;2023-06-22T01:19:00;20.52;72.23
66144;SHT31;52947;50.842;6.084;2023-06-22T01:21:31;20.53;72.48
66144;SHT31;52947;50.842;6.084;2023-06-22T01:24:10;20.52;72.78
66144;SHT31;52947;50.842;6.084;2023-06-22T01:26:42;20.45;72.41
66144;SHT31;52947;50.842;6.084;2023-06-22T01:29:13;20.42;72.66
66144;SHT31;52947;50.842;6.084;2023-06-22T01:31:43;20.42;72.45
66144;SHT31;52947;50.842;6.084;2023-06-22T01:34:12;20.31;72.77
66144;SHT31;52947;50.842;6.084;2023-06-22T01:36:41;20.44;72.96
66144;SHT31;52947;50.842;6.084;2023-06-22T01:39:11;20.41;73.28
66144;SHT31;52947;50.842;6.084;2023-06-22T01:41:41;20.44;73.38
66144;SHT31;52947;50.842;6.084;2023-06-22T01:44:12;20.49;73.22
66144;SHT31;52947;50.842;6.084;2023-06-22T01:46:41;20.52;73.61
66144;SHT31;52947;50.842;6.084;2023-06-22T01:49:09;20.59;73.45
66144;SHT31;52947;50.842;6.084;2023-06-22T01:51:37;20.59;72.60
66144;SHT31;52947;50.842;6.084;2023-06-22T01:54:06;20.56;72.89
66144;SHT31;52947;50.842;6.084;2023-06-22T01:56:34;20.61;73.48
66144;SHT31;52947;50.842;6.084;2023-06-22T01:59:08;20.56;73.35
66144;SHT31;52947;50.842;6.084;2023-06-22T02:01:42;20.61;73.78
66144;SHT31;52947;50.842;6.084;2023-06-22T02:04:13;20.59;73.11
66144;SHT31;52947;50.842;6.084;2023-06-22T02:06:46;20.57;73.19
66144;SHT31;52947;50.842;6.084;2023-06-22T02:09:19;20.55;73.20
66144;SHT31;52947;50.842;6.084;2023-06-22T02:11:50;20.51;73.18
66144;SHT31;52947;50.842;6.084;2023-06-22T02:14:22;20.41;73.42
66144;SHT31;52947;50.842;6.084;2023-06-22T02:16:52;20.44;73.49
66144;SHT31;52947;50.842;6.084;2023-06-22T02:19:22;20.18;73.95
66144;SHT31;52947;50.842;6.084;2023-06-22T02:21:52;20.07;74.44
66144;SHT31;52947;50.842;6.084;2023-06-22T02:24:20;20.10;74.68
66144;SHT31;52947;50.842;6.084;2023-06-22T02:26:50;20.17;74.38
66144;SHT31;52947;50.842;6.084;2023-06-22T02:29:18;19.93;74.73
66144;SHT31;52947;50.842;6.084;2023-06-22T02:31:46;19.78;75.16
66144;SHT31;52947;50.842;6.084;2023-06-22T02:34:15;19.67;75.68
66144;SHT31;52947;50.842;6.084;2023-06-22T02:36:45;19.60;75.85
66144;SHT31;52947;50.842;6.084;2023-06-22T02:39:19;19.54;76.08
66144;SHT31;52947;50.842;6.084;2023-06-22T02:41:49;19.50;76.45
66144;SHT31;52947;50.842;6.084;2023-06-22T02:44:17;19.47;76.45
66144;SHT31;52947;50.842;6.084;2023-06-22T02:46:47;19.47;76.46
66144;SHT31;52947;50.842;6.084;2023-06-22T02:49:17;19.45;76.62
66144;SHT31;52947;50.842;6.084;2023-06-22T02:51:47;19.43;76.82
66144;SHT31;52947;50.842;6.084;2023-06-22T02:54:19;19.42;76.99
66144;SHT31;52947;50.842;6.084;2023-06-22T02:56:50;19.40;77.05
66144;SHT31;52947;50.842;6.084;2023-06-22T02:59:20;19.43;77.22
66144;SHT31;52947;50.842;6.084;2023-06-22T03:01:53;19.47;78.52
66144;SHT31;52947;50.842;6.084;2023-06-22T03:04:26;19.78;76.91
66144;SHT31;52947;50.842;6.084;2023-06-22T03:06:54;19.81;76.83
66144;SHT31;52947;50.842;6.084;2023-06-22T03:09:22;20.04;75.93
66144;SHT31;52947;50.842;6.084;2023-06-22T03:11:50;19.94;76.16
66144;SHT31;52947;50.842;6.084;2023-06-22T03:14:20;19.90;76.56
66144;SHT31;52947;50.842;6.084;2023-06-22T03:16:51;19.77;76.70
66144;SHT31;52947;50.842;6.084;2023-06-22T03:19:19;19.77;76.96
66144;SHT31;52947;50.842;6.084;2023-06-22T03:21:49;19.84;76.84
66144;SHT31;52947;50.842;6.084;2023-06-22T03:24:18;19.71;77.17
66144;SHT31;52947;50.842;6.084;2023-06-22T03:26:47;19.50;77.58
66144;SHT31;52947;50.842;6.084;2023-06-22T03:29:15;19.50;77.91
66144;SHT31;52947;50.842;6.084;2023-06-22T03:31:44;19.53;77.74
66144;SHT31;52947;50.842;6.084;2023-06-22T03:34:13;19.53;77.91
66144;SHT31;52947;50.842;6.084;2023-06-22T03:36:42;19.54;77.88
66144;SHT31;52947;50.842;6.084;2023-06-22T03:39:13;19.69;77.82
66144;SHT31;52947;50.842;6.084;2023-06-22T03:41:41;19.71;77.62
66144;SHT31;52947;50.842;6.084;2023-06-22T03:44:09;19.78;77.33
66144;SHT31;52947;50.842;6.084;2023-06-22T03:46:39;19.80;77.37
66144;SHT31;52947;50.842;6.084;2023-06-22T03:49:06;19.78;77.52
66144;SHT31;52947;50.842;6.084;2023-06-22T03:51:34;19.78;77.59
66144;SHT31;52947;50.842;6.084;2023-06-22T03:54:02;19.78;77.59
66144;SHT31;52947;50.842;6.084;2023-06-22T03:56:32;19.67;77.77
66144;SHT31;52947;50.842;6.084;2023-06-22T03:58:59;19.74;77.77
66144;SHT31;52947;50.842;6.084;2023-06-22T04:01:27;19.73;77.85
66144;SHT31;52947;50.842;6.084;2023-06-22T04:03:55;19.84;77.82
66144;SHT31;52947;50.842;6.084;2023-06-22T04:06:23;19.84;77.84
66144;SHT31;52947;50.842;6.084;2023-06-22T04:08:51;19.85;77.33
66144;SHT31;52947;50.842;6.084;2023-06-22T04:11:19;20.04;77.24
66144;SHT31;52947;50.842;6.084;2023-06-22T04:13:48;20.07;77.40
66144;SHT31;52947;50.842;6.084;2023-06-22T04:16:18;20.08;77.27
66144;SHT31;52947;50.842;6.084;2023-06-22T04:18:45;20.15;77.30
66144;SHT31;52947;50.842;6.084;2023-06-22T04:21:13;20.15;77.28
66144;SHT31;52947;50.842;6.084;2023-06-22T04:23:41;20.14;77.31
66144;SHT31;52947;50.842;6.084;2023-06-22T04:26:10;20.17;77.31
66144;SHT31;52947;50.842;6.084;2023-06-22T04:28:38;20.10;77.55
66144;SHT31;52947;50.842;6.084;2023-06-22T04:31:07;20.14;77.50
66144;SHT31;52947;50.842;6.084;2023-06-22T04:33:35;20.18;77.27
66144;SHT31;52947;50.842;6.084;2023-06-22T04:36:07;20.18;77.20
66144;SHT31;52947;50.842;6.084;2023-06-22T04:38:35;20.20;77.40
66144;SHT31;52947;50.842;6.084;2023-06-22T04:41:03;20.22;77.34
66144;SHT31;52947;50.842;6.084;2023-06-22T04:43:31;20.25;77.39
66144;SHT31;52947;50.842;6.084;2023-06-22T04:45:58;20.25;77.10
66144;SHT31;52947;50.842;6.084;2023-06-22T04:48:31;20.38;77.18
66144;SHT31;52947;50.842;6.084;2023-06-22T04:51:00;20.49;76.98
66144;SHT31;52947;50.842;6.084;2023-06-22T04:53:30;20.49;76.90
66144;SHT31;52947;50.842;6.084;2023-06-22T04:55:58;20.62;76.77
66144;SHT31;52947;50.842;6.084;2023-06-22T04:58:26;20.75;76.37
66144;SHT31;52947;50.842;6.084;2023-06-22T05:00:55;20.75;76.51
66144;SHT31;52947;50.842;6.084;2023-06-22T05:03:25;20.72;76.35
66144;SHT31;52947;50.842;6.084;2023-06-22T05:05:55;20.69;76.38
66144;SHT31;52947;50.842;6.084;2023-06-22T05:08:23;20.62;76.64
66144;SHT31;52947;50.842;6.084;2023-06-22T05:10:55;20.59;77.01
66144;SHT31;52947;50.842;6.084;2023-06-22T05:13:31;20.63;76.79
66144;SHT31;52947;50.842;6.084;2023-06-22T05:15:59;20.56;77.09
66144;SHT31;52947;50.842;6.084;2023-06-22T05:18:29;20.35;77.79
66144;SHT31;52947;50.842;6.084;2023-06-22T05:21:00;20.42;77.63
66144;SHT31;52947;50.842;6.084;2023-06-22T05:23:27;20.41;77.59
66144;SHT31;52947;50.842;6.084;2023-06-22T05:25:55;20.39;77.82
66144;SHT31;52947;50.842;6.084;2023-06-22T05:28:24;20.29;77.96
66144;SHT31;52947;50.842;6.084;2023-06-22T05:30:52;20.38;78.04
66144;SHT31;52947;50.842;6.084;2023-06-22T05:33:21;20.51;77.94
66144;SHT31;52947;50.842;6.084;2023-06-22T05:35:48;20.59;77.83
66144;SHT31;52947;50.842;6.084;2023-06-22T05:38:18;20.55;77.98
66144;SHT31;52947;50.842;6.084;2023-06-22T05:40:46;20.90;77.45
66144;SHT31;52947;50.842;6.084;2023-06-22T05:43:15;21.11;76.67
66144;SHT31;52947;50.842;6.084;2023-06-22T05:45:43;21.37;76.05
66144;SHT31;52947;50.842;6.084;2023-06-22T05:48:11;21.41;75.81
66144;SHT31;52947;50.842;6.084;2023-06-22T05:50:38;21.50;75.74
66144;SHT31;52947;50.842;6.084;2023-06-22T05:53:07;21.45;75.71
66144;SHT31;52947;50.842;6.084;2023-06-22T05:55:36;21.33;76.04
66144;SHT31;52947;50.842;6.084;2023-06-22T05:58:04;21.11;76.56
66144;SHT31;52947;50.842;6.084;2023-06-22T06:00:32;20.89;77.19
66144;SHT31;52947;50.842;6.084;2023-06-22T06:03:00;20.82;77.51
66144;SHT31;52947;50.842;6.084;2023-06-22T06:05:30;20.53;78.34
66144;SHT31;52947;50.842;6.084;2023-06-22T06:07:59;20.92;77.39
66144;SHT31;52947;50.842;6.084;2023-06-22T06:10:27;20.71;77.98
66144;SHT31;52947;50.842;6.084;2023-06-22T06:12:58;20.85;77.73
66144;SHT31;52947;50.842;6.084;2023-06-22T06:15:28;21.14;77.32
66144;SHT31;52947;50.842;6.084;2023-06-22T06:17:56;21.53;76.19
66144;SHT31;52947;50.842;6.084;2023-06-22T06:20:25;21.85;75.52
66144;SHT31;52947;50.842;6.084;2023-06-22T06:22:55;21.99;75.29
66144;SHT31;52947;50.842;6.084;2023-06-22T06:25:23;21.68;76.07
66144;SHT31;52947;50.842;6.084;2023-06-22T06:27:52;21.68;75.85
66144;SHT31;52947;50.842;6.084;2023-06-22T06:30:22;21.37;76.77
66144;SHT31;52947;50.842;6.084;2023-06-22T06:32:50;21.07;78.00
66144;SHT31;52947;50.842;6.084;2023-06-22T06:35:18;21.31;77.13
66144;SHT31;52947;50.842;6.084;2023-06-22T06:37:48;21.45;77.16
66144;SHT31;52947;50.842;6.084;2023-06-22T06:40:17;21.45;76.93
66144;SHT31;52947;50.842;6.084;2023-06-22T06:42:47;21.23;76.81
66144;SHT31;52947;50.842;6.084;2023-06-22T06:45:17;21.41;76.78
66144;SHT31;52947;50.842;6.084;2023-06-22T06:47:46;20.99;76.98
66144;SHT31;52947;50.842;6.084;2023-06-22T06:50:15;21.17;76.81
66144;SHT31;52947;50.842;6.084;2023-06-22T06:52:43;21.27;76.86
66144;SHT31;52947;50.842;6.084;2023-06-22T06:55:11;21.67;76.22
66144;SHT31;52947;50.842;6.084;2023-06-22T06:57:41;21.74;75.79
66144;SHT31;52947;50.842;6.084;2023-06-22T07:00:11;22.02;75.30
66144;SHT31;52947;50.842;6.084;2023-06-22T07:02:41;22.09;75.44
66144;SHT31;52947;50.842;6.084;2023-06-22T07:05:12;23.27;72.59
66144;SHT31;52947;50.842;6.084;2023-06-22T07:07:40;23.89;71.53
66144;SHT31;52947;50.842;6.084;2023-06-22T07:10:10;24.56;70.14
66144;SHT31;52947;50.842;6.084;2023-06-22T07:12:38;25.23;67.39
66144;SHT31;52947;50.842;6.084;2023-06-22T07:15:07;26.11;66.01
66144;SHT31;52947;50.842;6.084;2023-06-22T07:17:36;27.19;63.10
66144;SHT31;52947;50.842;6.084;2023-06-22T07:20:05;27.77;61.63
66144;SHT31;52947;50.842;6.084;2023-06-22T07:22:39;27.51;61.98
66144;SHT31;52947;50.842;6.084;2023-06-22T07:25:07;26.61;63.31
66144;SHT31;52947;50.842;6.084;2023-06-22T07:27:37;26.32;64.78
66144;SHT31;52947;50.842;6.084;2023-06-22T07:30:07;26.21;65.02
66144;SHT31;52947;50.842;6.084;2023-06-22T07:32:35;25.39;66.89
66144;SHT31;52947;50.842;6.084;2023-06-22T07:35:04;24.68;68.24
66144;SHT31;52947;50.842;6.084;2023-06-22T07:37:33;23.97;69.27
66144;SHT31;52947;50.842;6.084;2023-06-22T07:40:04;24.00;69.43
66144;SHT31;52947;50.842;6.084;2023-06-22T07:42:33;25.49;67.48
66144;SHT31;52947;50.842;6.084;2023-06-22T07:45:04;26.02;65.08
66144;SHT31;52947;50.842;6.084;2023-06-22T07:47:32;26.48;64.30
66144;SHT31;52947;50.842;6.084;2023-06-22T07:50:03;26.58;64.19
66144;SHT31;52947;50.842;6.084;2023-06-22T07:52:32;27.97;61.01
66144;SHT31;52947;50.842;6.084;2023-06-22T07:54:59;28.52;59.54
66144;SHT31;52947;50.842;6.084;2023-06-22T07:57:30;29.71;56.99
66144;SHT31;52947;50.842;6.084;2023-06-22T08:00:03;30.19;55.23
66144;SHT31;52947;50.842;6.084;2023-06-22T08:02:38;30.90;54.48
66144;SHT31;52947;50.842;6.084;2023-06-22T08:05:06;29.59;56.41
66144;SHT31;52947;50.842;6.084;2023-06-22T08:07:47;29.32;57.41
66144;SHT31;52947;50.842;6.084;2023-06-22T08:10:16;27.23;61.08
66144;SHT31;52947;50.842;6.084;2023-06-22T08:12:45;28.51;59.60
66144;SHT31;52947;50.842;6.084;2023-06-22T08:15:13;27.94;60.49
66144;SHT31;52947;50.842;6.084;2023-06-22T08:17:41;28.32;60.03
66144;SHT31;52947;50.842;6.084;2023-06-22T08:20:10;29.32;58.37
66144;SHT31;52947;50.842;6.084;2023-06-22T08:22:39;30.48;56.68
66144;SHT31;52947;50.842;6.084;2023-06-22T08:25:08;28.26;59.87
66144;SHT31;52947;50.842;6.084;2023-06-22T08:27:36;29.47;57.76
66144;SHT31;52947;50.842;6.084;2023-06-22T08:30:07;29.68;57.72
66144;SHT31;52947;50.842;6.084;2023-06-22T08:32:35;29.04;59.35
66144;SHT31;52947;50.842;6.084;2023-06-22T08:35:03;28.38;60.42
66144;SHT31;52947;50.842;6.084;2023-06-22T08:37:33;28.21;61.03
66144;SHT31;52947;50.842;6.084;2023-06-22T08:40:04;27.80;62.39
66144;SHT31;52947;50.842;6.084;2023-06-22T08:42:34;28.70;61.05
66144;SHT31;52947;50.842;6.084;2023-06-22T08:45:02;28.80;60.68
66144;SHT31;52947;50.842;6.084;2023-06-22T08:47:32;29.90;59.26
66144;SHT31;52947;50.842;6.084;2023-06-22T08:50:00;30.50;57.63
66144;SHT31;52947;50.842;6.084;2023-06-22T08:52:29;29.13;59.37
66144;SHT31;52947;50.842;6.084;2023-06-22T08:54:57;29.44;59.24
66144;SHT31;52947;50.842;6.084;2023-06-22T08:57:26;30.24;58.35
66144;SHT31;52947;50.842;6.084;2023-06-22T08:59:53;30.19;58.45
66144;SHT31;52947;50.842;6.084;2023-06-22T09:02:25;30.65;57.71
66144;SHT31;52947;50.842;6.084;2023-06-22T09:05:03;30.67;57.63
66144;SHT31;52947;50.842;6.084;2023-06-22T09:07:31;29.10;59.99
66144;SHT31;52947;50.842;6.084;2023-06-22T09:10:01;28.11;62.73
66144;SHT31;52947;50.842;6.084;2023-06-22T09:12:31;27.07;64.95
66144;SHT31;52947;50.842;6.084;2023-06-22T09:14:59;26.86;66.05
66144;SHT31;52947;50.842;6.084;2023-06-22T09:17:28;26.31;67.21
66144;SHT31;52947;50.842;6.084;2023-06-22T09:19:57;26.21;67.81
66144;SHT31;52947;50.842;6.084;2023-06-22T09:22:27;26.11;68.53
66144;SHT31;52947;50.842;6.084;2023-06-22T09:24:56;26.30;68.25
66144;SHT31;52947;50.842;6.084;2023-06-22T09:27:24;26.42;67.61
66144;SHT31;52947;50.842;6.084;2023-06-22T09:29:52;25.60;69.51
66144;SHT31;52947;50.842;6.084;2023-06-22T09:32:19;25.58;69.80
66144;SHT31;52947;50.842;6.084;2023-06-22T09:34:47;24.84;71.73
66144;SHT31;52947;50.842;6.084;2023-06-22T09:37:15;24.71;72.20
66144;SHT31;52947;50.842;6.084;2023-06-22T09:39:44;25.04;71.82
66144;SHT31;52947;50.842;6.084;2023-06-22T09:42:12;24.77;72.49
66144;SHT31;52947;50.842;6.084;2023-06-22T09:44:40;24.99;71.59
66144;SHT31;52947;50.842;6.084;2023-06-22T09:47:08;24.53;72.75
66144;SHT31;52947;50.842;6.084;2023-06-22T09:49:36;24.89;71.64
66144;SHT31;52947;50.842;6.084;2023-06-22T09:52:14;24.87;71.64
66144;SHT31;52947;50.842;6.084;2023-06-22T09:54:42;24.94;71.28
66144;SHT31;52947;50.842;6.084;2023-06-22T09:57:11;24.89;71.89
66144;SHT31;52947;50.842;6.084;2023-06-22T09:59:39;24.75;72.24
66144;SHT31;52947;50.842;6.084;2023-06-22T10:02:07;24.79;72.78
66144;SHT31;52947;50.842;6.084;2023-06-22T10:04:35;24.92;73.07
66144;SHT31;52947;50.842;6.084;2023-06-22T10:07:04;24.94;73.65
66144;SHT31;52947;50.842;6.084;2023-06-22T10:09:32;24.92;73.70
66144;SHT31;52947;50.842;6.084;2023-06-22T10:12:00;24.91;74.54
66144;SHT31;52947;50.842;6.084;2023-06-22T10:14:29;24.74;75.22
66144;SHT31;52947;50.842;6.084;2023-06-22T10:16:57;24.47;75.71
66144;SHT31;52947;50.842;6.084;2023-06-22T10:19:26;23.97;76.94
66144;SHT31;52947;50.842;6.084;2023-06-22T10:21:53;23.92;77.18
66144;SHT31;52947;50.842;6.084;2023-06-22T10:24:22;23.87;77.16
66144;SHT31;52947;50.842;6.084;2023-06-22T10:26:50;23.68;79.00
66144;SHT31;52947;50.842;6.084;2023-06-22T10:29:18;23.65;78.21
66144;SHT31;52947;50.842;6.084;2023-06-22T10:31:47;23.42;78.98
66144;SHT31;52947;50.842;6.084;2023-06-22T10:34:15;23.22;80.19
66144;SHT31;52947;50.842;6.084;2023-06-22T10:36:43;23.24;80.46
66144;SHT31;52947;50.842;6.084;2023-06-22T10:39:14;22.94;81.68
66144;SHT31;52947;50.842;6.084;2023-06-22T10:41:42;22.94;82.38
66144;SHT31;52947;50.842;6.084;2023-06-22T10:44:10;22.97;83.34
66144;SHT31;52947;50.842;6.084;2023-06-22T10:46:38;23.11;82.18
66144;SHT31;52947;50.842;6.084;2023-06-22T10:49:08;22.93;83.45
66144;SHT31;52947;50.842;6.084;2023-06-22T10:51:36;22.91;82.91
66144;SHT31;52947;50.842;6.084;2023-06-22T10:54:04;22.84;84.02
66144;SHT31;52947;50.842;6.084;2023-06-22T10:56:32;23.03;83.30
66144;SHT31;52947;50.842;6.084;2023-06-22T10:59:00;23.12;82.74
66144;SHT31;52947;50.842;6.084;2023-06-22T11:01:28;23.38;82.83
66144;SHT31;52947;50.842;6.084;2023-06-22T11:04:04;23.39;83.12
66144;SHT31;52947;50.842;6.084;2023-06-22T11:06:33;23.61;82.81
66144;SHT31;52947;50.842;6.084;2023-06-22T11:09:01;24.20;81.32
66144;SHT31;52947;50.842;6.084;2023-06-22T11:11:51;24.87;80.35
66144;SHT31;52947;50.842;6.084;2023-06-22T11:14:20;24.58;80.48
66144;SHT31;52947;50.842;6.084;2023-06-22T11:16:48;24.38;80.06
66144;SHT31;52947;50.842;6.084;2023-06-22T11:19:17;24.00;80.52
66144;SHT31;52947;50.842;6.084;2023-06-22T11:21:46;24.02;80.99
66144;SHT31;52947;50.842;6.084;2023-06-22T11:24:14;24.33;80.94
66144;SHT31;52947;50.842;6.084;2023-06-22T11:26:42;24.72;80.18
66144;SHT31;52947;50.842;6.084;2023-06-22T11:29:10;25.51;79.19
66144;SHT31;52947;50.842;6.084;2023-06-22T11:31:57;25.54;78.68
66144;SHT31;52947;50.842;6.084;2023-06-22T11:34:25;26.44;77.23
66144;SHT31;52947;50.842;6.084;2023-06-22T11:36:56;26.72;76.01
66144;SHT31;52947;50.842;6.084;2023-06-22T11:39:23;27.24;75.71
66144;SHT31;52947;50.842;6.084;2023-06-22T11:42:07;26.89;74.72
66144;SHT31;52947;50.842;6.084;2023-06-22T11:44:35;26.35;76.33
66144;SHT31;52947;50.842;6.084;2023-06-22T11:47:03;25.65;76.24
66144;SHT31;52947;50.842;6.084;2023-06-22T11:49:31;25.19;78.89
66144;SHT31;52947;50.842;6.084;2023-06-22T11:52:01;25.25;78.48
66144;SHT31;52947;50.842;6.084;2023-06-22T11:54:29;24.98;79.37
66144;SHT31;52947;50.842;6.084;2023-06-22T11:56:56;25.01;79.46
66144;SHT31;52947;50.842;6.084;2023-06-22T11:59:24;25.38;78.97
66144;SHT31;52947;50.842;6.084;2023-06-22T12:01:52;25.15;79.02
66144;SHT31;52947;50.842;6.084;2023-06-22T12:04:20;25.02;78.85
66144;SHT31;52947;50.842;6.084;2023-06-22T12:06:48;25.11;79.60
66144;SHT31;52947;50.842;6.084;2023-06-22T12:09:17;25.29;79.11
66144;SHT31;52947;50.842;6.084;2023-06-22T12:11:45;25.45;78.93
66144;SHT31;52947;50.842;6.084;2023-06-22T12:14:13;24.87;79.24
66144;SHT31;52947;50.842;6.084;2023-06-22T12:16:41;25.07;79.49
66144;SHT31;52947;50.842;6.084;2023-06-22T12:19:11;24.94;79.50
66144;SHT31;52947;50.842;6.084;2023-06-22T12:21:39;24.77;80.25
66144;SHT31;52947;50.842;6.084;2023-06-22T12:24:07;24.67;80.42
66144;SHT31;52947;50.842;6.084;2023-06-22T12:26:36;24.75;79.11
66144;SHT31;52947;50.842;6.084;2023-06-22T12:29:04;25.20;78.77
66144;SHT31;52947;50.842;6.084;2023-06-22T12:31:32;25.59;78.15
66144;SHT31;52947;50.842;6.084;2023-06-22T12:34:00;25.67;78.10
66144;SHT31;52947;50.842;6.084;2023-06-22T12:36:28;26.37;77.32
66144;SHT31;52947;50.842;6.084;2023-06-22T12:38:56;26.49;76.59
66144;SHT31;52947;50.842;6.084;2023-06-22T12:41:25;26.65;76.22
66144;SHT31;52947;50.842;6.084;2023-06-22T12:43:54;26.38;76.87
66144;SHT31;52947;50.842;6.084;2023-06-22T12:46:22;25.66;78.09
66144;SHT31;52947;50.842;6.084;2023-06-22T12:48:50;25.22;79.21
66144;SHT31;52947;50.842;6.084;2023-06-22T12:51:21;24.77;79.72
66144;SHT31;52947;50.842;6.084;2023-06-22T12:53:49;24.68;79.71
66144;SHT31;52947;50.842;6.084;2023-06-22T12:56:17;24.41;79.73
66144;SHT31;52947;50.842;6.084;2023-06-22T12:58:45;24.12;81.13
66144;SHT31;52947;50.842;6.084;2023-06-22T13:01:15;23.96;81.50
66144;SHT31;52947;50.842;6.084;2023-06-22T13:03:45;23.72;81.86
66144;SHT31;52947;50.842;6.084;2023-06-22T13:06:13;23.65;82.24
66144;SHT31;52947;50.842;6.084;2023-06-22T13:08:40;23.42;82.53
66144;SHT31;52947;50.842;6.084;2023-06-22T13:11:11;23.48;82.59
66144;SHT31;52947;50.842;6.084;2023-06-22T13:13:40;23.34;82.94
66144;SHT31;52947;50.842;6.084;2023-06-22T13:16:08;23.27;83.42
66144;SHT31;52947;50.842;6.084;2023-06-22T13:18:37;23.25;83.25
66144;SHT31;52947;50.842;6.084;2023-06-22T13:21:05;23.31;83.72
66144;SHT31;52947;50.842;6.084;2023-06-22T13:23:33;23.14;84.38
66144;SHT31;52947;50.842;6.084;2023-06-22T13:26:01;22.97;85.10
66144;SHT31;52947;50.842;6.084;2023-06-22T13:28:29;22.86;84.47
66144;SHT31;52947;50.842;6.084;2023-06-22T13:30:57;22.46;85.17
66144;SHT31;52947;50.842;6.084;2023-06-22T13:33:25;22.50;85.32
66144;SHT31;52947;50.842;6.084;2023-06-22T13:35:55;22.39;85.42
66144;SHT31;52947;50.842;6.084;2023-06-22T13:38:23;22.40;85.44
66144;SHT31;52947;50.842;6.084;2023-06-22T13:40:51;22.30;85.22
66144;SHT31;52947;50.842;6.084;2023-06-22T13:43:18;22.36;84.99
66144;SHT31;52947;50.842;6.084;2023-06-22T13:45:46;22.39;85.06
66144;SHT31;52947;50.842;6.084;2023-06-22T13:48:14;22.50;84.69
66144;SHT31;52947;50.842;6.084;2023-06-22T13:50:43;22.46;84.67
66144;SHT31;52947;50.842;6.084;2023-06-22T13:53:12;22.36;85.19
66144;SHT31;52947;50.842;6.084;2023-06-22T13:55:40;22.30;85.06
66144;SHT31;52947;50.842;6.084;2023-06-22T13:58:08;22.17;85.85
66144;SHT31;52947;50.842;6.084;2023-06-22T14:00:36;22.22;85.94
66144;SHT31;52947;50.842;6.084;2023-06-22T14:03:04;22.12;86.41
66144;SHT31;52947;50.842;6.084;2023-06-22T14:05:32;22.12;86.74
66144;SHT31;52947;50.842;6.084;2023-06-22T14:08:00;22.12;86.81
66144;SHT31;52947;50.842;6.084;2023-06-22T14:10:29;22.08;87.39
66144;SHT31;52947;50.842;6.084;2023-06-22T14:12:58;21.99;87.91
66144;SHT31;52947;50.842;6.084;2023-06-22T14:15:26;21.91;88.21
66144;SHT31;52947;50.842;6.084;2023-06-22T14:17:54;21.85;88.37
66144;SHT31;52947;50.842;6.084;2023-06-22T14:20:22;21.75;88.50
66144;SHT31;52947;50.842;6.084;2023-06-22T14:22:50;21.67;88.63
66144;SHT31;52947;50.842;6.084;2023-06-22T14:25:18;21.59;89.04
66144;SHT31;52947;50.842;6.084;2023-06-22T14:27:47;21.50;89.55
66144;SHT31;52947;50.842;6.084;2023-06-22T14:30:15;21.45;89.83
66144;SHT31;52947;50.842;6.084;2023-06-22T14:32:43;21.41;89.98
66144;SHT31;52947;50.842;6.084;2023-06-22T14:35:12;21.43;90.62
66144;SHT31;52947;50.842;6.084;2023-06-22T14:37:40;21.41;90.31
66144;SHT31;52947;50.842;6.084;2023-06-22T14:40:08;21.34;90.87
66144;SHT31;52947;50.842;6.084;2023-06-22T14:42:36;21.22;91.01
66144;SHT31;52947;50.842;6.084;2023-06-22T14:45:07;21.14;91.45
66144;SHT31;52947;50.842;6.084;2023-06-22T14:47:35;21.10;91.31
66144;SHT31;52947;50.842;6.084;2023-06-22T14:50:04;21.10;91.36
66144;SHT31;52947;50.842;6.084;2023-06-22T14:52:32;21.06;91.45
66144;SHT31;52947;50.842;6.084;2023-06-22T14:55:00;20.96;91.76
66144;SHT31;52947;50.842;6.084;2023-06-22T14:57:27;20.94;92.10
66144;SHT31;52947;50.842;6.084;2023-06-22T14:59:55;20.92;92.06
66144;SHT31;52947;50.842;6.084;2023-06-22T15:02:25;20.96;92.35
66144;SHT31;52947;50.842;6.084;2023-06-22T15:04:53;20.87;92.91
66144;SHT31;52947;50.842;6.084;2023-06-22T15:07:21;20.93;92.82
66144;SHT31;52947;50.842;6.084;2023-06-22T15:09:49;21.02;92.24
66144;SHT31;52947;50.842;6.084;2023-06-22T15:12:16;20.92;92.95
66144;SHT31;52947;50.842;6.084;2023-06-22T15:14:44;20.59;94.29
66144;SHT31;52947;50.842;6.084;2023-06-22T15:17:12;20.01;97.63
66144;SHT31;52947;50.842;6.084;2023-06-22T15:19:43;19.69;96.56
66144;SHT31;52947;50.842;6.084;2023-06-22T15:22:10;19.60;97.39
66144;SHT31;52947;50.842;6.084;2023-06-22T15:24:39;19.66;97.01
66144;SHT31;52947;50.842;6.084;2023-06-22T15:27:07;19.67;96.01
66144;SHT31;52947;50.842;6.084;2023-06-22T15:29:35;19.67;96.09
66144;SHT31;52947;50.842;6.084;2023-06-22T15:32:03;19.70;95.62
66144;SHT31;52947;50.842;6.084;2023-06-22T15:34:31;19.70;95.60
66144;SHT31;52947;50.842;6.084;2023-06-22T15:37:01;19.83;94.79
66144;SHT31;52947;50.842;6.084;2023-06-22T15:39:29;19.90;94.18
66144;SHT31;52947;50.842;6.084;2023-06-22T15:41:57;19.94;94.39